createdAt,value
2022-11-05T00:04:19.722Z,135.57
2022-11-05T00:09:33.873Z,128.43
2022-11-05T00:14:57.490Z,126.22
2022-11-05T00:20:02.476Z,128.82
2022-11-05T00:25:20.863Z,143.18
2022-11-05T00:30:30.436Z,136.88
2022-11-05T00:35:35.681Z,132.02
2022-11-05T00:40:40.699Z,112.95
2022-11-05T00:45:45.977Z,92.87
2022-11-05T00:50:53.262Z,113.07
2022-11-05T00:56:01.787Z,88.65
2022-11-05T01:01:07.253Z,73.80
2022-11-05T01:06:16.829Z,110.47
2022-11-05T01:11:34.478Z,96.97
2022-11-05T01:16:42.195Z,115.55
2022-11-05T01:21:47.020Z,104.43
2022-11-05T01:27:01.306Z,100.68
2022-11-05T01:32:07.305Z,92.20
2022-11-05T01:42:21.440Z,85.13
2022-11-05T01:47:52.629Z,73.57
2022-11-05T01:53:04.190Z,74.18
2022-11-05T01:58:11.004Z,71.10
2022-11-05T02:03:17.278Z,65.72
2022-11-05T02:08:30.082Z,52.55
2022-11-05T02:13:35.311Z,72.20
2022-11-05T02:18:40.445Z,50.90
2022-11-05T02:23:55.988Z,60.13
2022-11-05T02:29:07.258Z,43.83
2022-11-05T02:34:18.118Z,60.35
2022-11-05T02:39:39.919Z,50.53
2022-11-05T02:44:45.215Z,40.10
2022-11-05T02:50:05.749Z,41.00
2022-11-05T02:55:10.838Z,54.90
2022-11-05T03:00:33.982Z,41.27
2022-11-05T03:05:47.050Z,52.83
2022-11-05T03:11:00.282Z,51.33
2022-11-05T03:16:10.122Z,52.20
2022-11-05T03:21:20.810Z,51.03
2022-11-05T03:26:48.797Z,40.03
2022-11-05T03:31:56.059Z,48.22
2022-11-05T03:37:01.439Z,43.97
2022-11-05T03:42:09.388Z,41.97
2022-11-05T03:47:20.109Z,45.85
2022-11-05T03:52:28.361Z,41.17
2022-11-05T03:57:34.910Z,33.08
2022-11-05T04:02:40.253Z,47.45
2022-11-05T04:08:06.765Z,39.53
2022-11-05T04:13:27.680Z,43.30
2022-11-05T04:18:32.698Z,41.10
2022-11-05T04:23:55.970Z,37.08
2022-11-05T04:29:26.890Z,47.58
2022-11-05T04:34:32.198Z,37.80
2022-11-05T04:39:37.381Z,38.43
2022-11-05T04:44:43.242Z,40.33
2022-11-05T04:49:47.965Z,27.00
2022-11-05T04:54:52.646Z,34.80
2022-11-05T04:59:57.652Z,44.47
2022-11-05T05:05:02.836Z,32.17
2022-11-05T05:10:08.802Z,36.70
2022-11-05T05:15:13.984Z,30.60
2022-11-05T05:20:37.351Z,31.57
2022-11-05T05:25:42.432Z,38.67
2022-11-05T05:30:47.325Z,30.23
2022-11-05T05:35:52.178Z,39.15
2022-11-05T05:41:00.316Z,46.90
2022-11-05T05:46:10.906Z,28.23
2022-11-05T05:51:15.819Z,32.30
2022-11-05T05:56:21.818Z,34.30
2022-11-05T06:01:27.635Z,33.55
2022-11-05T06:06:32.645Z,42.10
2022-11-05T06:11:37.830Z,29.40
2022-11-05T06:16:43.151Z,29.30
2022-11-05T06:21:48.669Z,31.97
2022-11-05T06:31:58.706Z,34.92
2022-11-05T06:37:03.432Z,27.90
2022-11-05T06:42:23.613Z,39.43
2022-11-05T06:47:28.711Z,31.05
2022-11-05T06:52:38.305Z,27.88
2022-11-05T06:57:45.938Z,30.92
2022-11-05T07:02:51.271Z,35.22
2022-11-05T07:07:59.774Z,34.42
2022-11-05T07:13:08.386Z,30.75
2022-11-05T07:18:14.055Z,36.63
2022-11-05T07:23:20.003Z,33.90
2022-11-05T07:28:25.037Z,28.75
2022-11-05T07:33:36.576Z,35.10
2022-11-05T07:38:42.008Z,35.38
2022-11-05T07:43:46.761Z,29.63
2022-11-05T07:48:51.859Z,32.00
2022-11-05T07:53:56.703Z,31.83
2022-11-05T07:59:01.749Z,35.97
2022-11-05T08:04:07.067Z,35.27
2022-11-05T08:14:16.901Z,25.83
2022-11-05T08:19:22.309Z,29.55
2022-11-05T08:24:28.315Z,29.48
2022-11-05T08:29:37.378Z,28.98
2022-11-05T08:34:44.634Z,27.40
2022-11-05T08:39:50.059Z,35.50
2022-11-05T08:44:55.114Z,27.40
2022-11-05T08:50:01.322Z,29.20
2022-11-05T08:55:06.964Z,36.95
2022-11-05T09:00:12.573Z,32.58
2022-11-05T09:10:22.148Z,27.05
2022-11-05T09:15:27.896Z,27.40
2022-11-05T09:20:37.850Z,28.55
2022-11-05T09:25:43.112Z,30.40
2022-11-05T09:30:54.737Z,39.20
2022-11-05T09:36:02.062Z,29.70
2022-11-05T09:41:10.084Z,35.00
2022-11-05T09:46:19.984Z,34.75
2022-11-05T09:51:25.674Z,41.83
2022-11-05T09:56:38.207Z,35.63
2022-11-05T10:01:45.836Z,38.00
2022-11-05T10:06:59.062Z,38.60
2022-11-05T10:12:24.533Z,39.85
2022-11-05T10:17:31.899Z,39.42
2022-11-05T10:22:43.897Z,46.92
2022-11-05T10:27:56.316Z,42.88
2022-11-05T10:33:02.818Z,38.92
2022-11-05T10:38:07.873Z,36.83
2022-11-05T10:43:35.657Z,37.60
2022-11-05T10:48:56.047Z,38.28
2022-11-05T10:54:04.703Z,41.92
2022-11-05T10:59:22.709Z,39.08
2022-11-05T11:04:32.265Z,42.63
2022-11-05T11:09:40.797Z,54.58
2022-11-05T11:14:50.939Z,49.28
2022-11-05T11:20:15.930Z,56.67
2022-11-05T11:25:44.824Z,59.60
2022-11-05T11:30:56.309Z,62.70
2022-11-05T11:36:08.182Z,58.17
2022-11-05T11:41:14.151Z,57.13
2022-11-05T11:46:23.301Z,65.22
2022-11-05T11:51:41.520Z,68.30
2022-11-05T11:56:50.665Z,63.83
2022-11-05T12:02:09.404Z,57.92
2022-11-05T12:07:33.186Z,124.10
2022-11-05T12:12:41.174Z,95.63
2022-11-05T12:18:02.105Z,98.28
2022-11-05T12:23:29.329Z,57.53
2022-11-05T12:29:16.834Z,69.32
2022-11-05T12:34:16.012Z,68.10
2022-11-05T12:39:39.316Z,54.42
2022-11-05T12:45:14.527Z,56.15
2022-11-05T12:50:22.689Z,58.75
2022-11-05T12:55:29.237Z,50.08
2022-11-05T13:00:34.183Z,60.03
2022-11-05T13:05:41.854Z,42.20
2022-11-05T13:10:54.665Z,64.82
2022-11-05T13:16:02.674Z,59.97
2022-11-05T13:21:10.379Z,46.30
2022-11-05T13:26:23.938Z,58.60
2022-11-05T13:31:32.797Z,63.88
2022-11-05T13:37:04.382Z,59.58
2022-11-05T13:42:12.307Z,49.88
2022-11-05T13:47:35.946Z,49.22
2022-11-05T13:52:52.636Z,51.13
2022-11-05T13:58:16.265Z,36.25
2022-11-05T14:03:22.835Z,60.45
2022-11-05T14:08:30.418Z,57.10
2022-11-05T14:13:38.696Z,63.00
2022-11-05T14:18:49.334Z,68.95
2022-11-05T14:23:58.388Z,61.08
2022-11-05T14:29:06.967Z,71.93
2022-11-05T14:34:12.106Z,62.13
2022-11-05T14:39:21.948Z,62.03
2022-11-05T14:44:28.468Z,62.35
2022-11-05T14:49:50.303Z,71.90
2022-11-05T14:55:03.487Z,62.78
2022-11-05T15:00:11.378Z,67.85
2022-11-05T15:05:35.221Z,64.97
2022-11-05T15:10:41.457Z,54.70
2022-11-05T15:15:50.234Z,62.33
2022-11-05T15:20:57.945Z,51.45
2022-11-05T15:26:12.262Z,74.22
2022-11-05T15:31:18.456Z,63.78
2022-11-05T15:36:31.304Z,66.53
2022-11-05T15:41:36.353Z,66.35
2022-11-05T15:46:41.517Z,72.57
2022-11-05T15:51:46.732Z,71.70
2022-11-05T15:56:57.256Z,62.07
2022-11-05T16:02:04.287Z,66.90
2022-11-05T16:07:11.480Z,73.63
2022-11-05T16:12:25.310Z,69.18
2022-11-05T16:17:32.485Z,62.63
2022-11-05T16:22:47.643Z,70.88
2022-11-05T16:27:52.641Z,69.28
2022-11-05T16:33:04.676Z,63.23
2022-11-05T16:38:11.873Z,63.28
2022-11-05T16:43:25.173Z,58.15
2022-11-05T16:48:30.534Z,68.07
2022-11-05T16:53:35.654Z,60.77
2022-11-05T16:58:40.473Z,60.40
2022-11-05T17:03:46.214Z,63.65
2022-11-05T17:08:51.613Z,61.35
2022-11-05T17:13:56.718Z,67.50
2022-11-05T17:19:01.574Z,63.50
2022-11-05T17:24:06.569Z,62.53
2022-11-05T17:29:11.774Z,61.97
2022-11-05T17:34:18.384Z,70.55
2022-11-05T17:39:30.282Z,71.20
2022-11-05T17:44:38.939Z,64.05
2022-11-05T17:49:44.062Z,63.15
2022-11-05T17:54:48.927Z,63.97
2022-11-05T17:59:54.127Z,56.83
2022-11-05T18:04:58.969Z,54.53
2022-11-05T18:10:03.896Z,56.75
2022-11-05T18:15:09.150Z,56.55
2022-11-05T18:20:19.756Z,60.05
2022-11-05T18:25:25.001Z,58.33
2022-11-05T18:30:30.112Z,58.63
2022-11-05T18:35:34.948Z,57.53
2022-11-05T18:40:40.554Z,59.65
2022-11-05T18:45:45.732Z,64.43
2022-11-05T18:50:50.662Z,60.35
2022-11-05T18:55:55.844Z,63.93
2022-11-05T19:01:06.317Z,62.87
2022-11-05T19:06:13.039Z,55.38
2022-11-05T19:11:25.104Z,53.78
2022-11-05T19:16:31.365Z,54.15
2022-11-05T19:21:36.246Z,50.53
2022-11-05T19:26:41.435Z,51.85
2022-11-05T19:31:46.038Z,48.43
2022-11-05T19:36:51.170Z,48.88
2022-11-05T19:42:01.978Z,48.92
2022-11-05T19:47:09.000Z,49.22
2022-11-05T19:52:14.408Z,48.13
2022-11-05T19:57:19.498Z,50.43
2022-11-05T20:02:24.821Z,47.55
2022-11-05T20:07:29.926Z,50.10
2022-11-05T20:12:36.457Z,52.93
2022-11-05T20:17:41.623Z,53.35
2022-11-05T20:22:46.617Z,53.03
2022-11-05T20:27:51.947Z,51.73
2022-11-05T20:32:57.309Z,53.53
2022-11-05T20:38:01.972Z,57.37
2022-11-05T20:43:07.109Z,59.97
2022-11-05T20:48:12.519Z,50.30
2022-11-05T20:53:17.558Z,54.72
2022-11-05T20:58:22.224Z,53.88
2022-11-05T21:03:28.312Z,53.03
2022-11-05T21:08:33.567Z,53.17
2022-11-05T21:13:38.940Z,54.77
2022-11-05T21:18:44.333Z,55.28
2022-11-05T21:23:49.379Z,53.40
2022-11-05T21:28:54.042Z,52.40
2022-11-05T21:33:59.153Z,54.63
2022-11-05T21:39:07.723Z,56.33
2022-11-05T21:44:15.415Z,57.08
2022-11-05T21:49:20.805Z,60.47
2022-11-05T21:54:44.159Z,55.22
2022-11-05T21:59:49.507Z,61.40
2022-11-05T22:04:55.833Z,72.63
2022-11-05T22:10:01.195Z,72.18
2022-11-05T22:15:06.535Z,75.70
2022-11-05T22:20:12.149Z,84.40
2022-11-05T22:25:17.416Z,88.60
2022-11-05T22:30:22.306Z,94.40
2022-11-05T22:35:27.489Z,97.45
2022-11-05T22:40:32.415Z,96.40
2022-11-05T22:45:38.505Z,125.65
2022-11-05T22:50:43.620Z,117.97
2022-11-05T22:55:48.482Z,126.70
2022-11-05T23:00:53.155Z,125.40
2022-11-05T23:06:01.920Z,132.40
2022-11-05T23:11:29.923Z,128.32
2022-11-05T23:16:53.184Z,119.60
2022-11-05T23:22:16.347Z,117.82
2022-11-05T23:27:21.752Z,111.63
2022-11-05T23:32:29.383Z,108.72
2022-11-05T23:37:53.356Z,110.75
2022-11-05T23:43:16.962Z,106.47
2022-11-05T23:48:22.463Z,107.32
2022-11-05T23:53:27.972Z,103.07
2022-11-05T23:58:33.265Z,109.70
